Time;durP1;ratioP1;P1;durP2;ratioP2;P2;SDS_P1;SDS_P2;PMS_P1;PMS_P2;Temp;Humidity;BMP_temperature;BMP_pressure;BME280_temperature;BME280_humidity;BME280_pressure;Samples;Min_cycle;Max_cycle;Signal;HPM_P1;HPM_P2
2023/10/10 00:01:23;;;;;;;0.77;0.73;;;;;;;13.76;59.94;100030.16;5347694;26;20021;-96
2023/10/10 00:03:49;;;;;;;0.08;0.08;;;;;;;13.86;59.94;100035.00;5365626;26;20051;-96
2023/10/10 00:06:16;;;;;;;0.70;0.62;;;;;;;13.92;59.94;100030.34;5365721;26;20032;-96
2023/10/10 00:08:46;;;;;;;0.15;0.15;;;;;;;14.02;59.94;100030.84;5367282;26;20019;-96
2023/10/10 00:11:16;;;;;;;0.00;0.00;;;;;;;13.96;59.95;100029.34;5330078;26;20023;-96
2023/10/10 00:14:04;;;;;;;;;;;;;;;14.01;59.94;100029.12;5329426;26;20028;-95
2023/10/10 00:16:39;;;;;;;0.10;0.10;;;;;;;14.16;59.96;100025.00;5347251;26;19961;-95
2023/10/10 00:19:43;;;;;;;0.15;0.15;;;;;;;14.22;59.96;100020.37;5365003;26;20031;-96
2023/10/10 00:22:01;;;;;;;0.20;0.20;;;;;;;14.18;59.96;100024.03;5343475;26;20070;-95
2023/10/10 00:24:44;;;;;;;0.32;0.17;;;;;;;14.23;59.96;100023.84;5339043;26;20170;-96
2023/10/10 00:27:35;;;;;;;2.92;1.05;;;;;;;14.57;59.98;100020.66;5364414;26;20062;-96
2023/10/10 00:31:03;;;;;;;;;;;;;;;14.59;59.98;100022.28;5319048;27;20067;-95
2023/10/10 00:34:34;;;;;;;0.15;0.15;;;;;;;14.79;60.00;100021.41;5231521;27;19961;-94
2023/10/10 00:37:44;;;;;;;0.50;0.50;;;;;;;14.47;59.97;100035.94;5232402;27;20034;-96
2023/10/10 00:40:38;;;;;;;1.45;1.20;;;;;;;14.29;59.97;100034.06;5163790;27;20039;-95
2023/10/10 00:43:16;;;;;;;0.28;0.28;;;;;;;14.21;59.96;100026.53;5142780;27;20034;-96
2023/10/10 00:45:57;;;;;;;1.23;0.65;;;;;;;14.22;59.96;100025.62;5108504;27;20047;-96
2023/10/10 00:48:44;;;;;;;0.00;0.00;;;;;;;14.20;59.96;100024.84;5116851;27;20167;-96
2023/10/10 00:51:53;;;;;;;1.37;1.08;;;;;;;14.33;59.96;100026.00;5166392;27;20110;-96
2023/10/10 00:55:10;;;;;;;0.45;0.45;;;;;;;14.38;59.96;100029.25;5165097;27;20878;-96
2023/10/10 00:57:56;;;;;;;4.15;1.65;;;;;;;14.36;59.97;100038.97;5165274;27;20055;-95
2023/10/10 01:00:52;;;;;;;0.30;0.30;;;;;;;14.28;59.97;100035.81;5156523;27;20104;-95
2023/10/10 01:03:21;;;;;;;1.65;1.12;;;;;;;14.42;59.97;100043.91;5203000;27;20035;-96
2023/10/10 01:05:54;;;;;;;0.08;0.08;;;;;;;14.55;59.98;100046.06;5224052;27;20191;-95
2023/10/10 01:08:20;;;;;;;0.75;0.75;;;;;;;14.66;59.99;100047.28;5222797;27;20050;-94
2023/10/10 01:10:48;;;;;;;0.35;0.35;;;;;;;14.56;59.98;100048.62;5216629;27;20361;-95
2023/10/10 01:13:16;;;;;;;1.02;1.02;;;;;;;14.28;59.97;100058.53;5217294;27;20066;-95
2023/10/10 01:15:44;;;;;;;0.45;0.45;;;;;;;14.33;59.96;100062.66;5199714;27;20105;-96
2023/10/10 01:18:15;;;;;;;0.75;0.57;;;;;;;14.25;59.96;100056.91;5217137;27;20066;-94
2023/10/10 01:20:51;;;;;;;0.55;0.55;;;;;;;14.13;59.96;100058.25;5254887;27;20083;-96
2023/10/10 01:23:26;;;;;;;0.50;0.50;;;;;;;14.10;59.96;100065.38;5265798;27;20154;-94
2023/10/10 01:26:05;;;;;;;2.15;1.30;;;;;;;13.91;59.94;100064.44;5265769;27;20112;-95
2023/10/10 01:28:34;;;;;;;0.32;0.32;;;;;;;13.90;59.95;100070.56;5297662;27;20060;-95
2023/10/10 01:31:21;;;;;;;2.65;1.20;;;;;;;13.90;59.94;100070.56;5344015;26;20036;-93
2023/10/10 01:33:49;;;;;;;0.10;0.10;;;;;;;13.88;59.94;100075.88;5336279;26;20092;-95
2023/10/10 01:36:21;;;;;;;0.10;0.10;;;;;;;13.81;59.94;100075.28;5331665;26;20056;-95
2023/10/10 01:39:07;;;;;;;0.37;0.37;;;;;;;13.81;59.94;100075.28;5314250;26;20694;-96
2023/10/10 01:41:38;;;;;;;0.10;0.10;;;;;;;13.67;59.93;100076.72;5332055;26;20064;-95
2023/10/10 01:44:17;;;;;;;0.37;0.37;;;;;;;13.78;59.93;100064.09;5314443;26;20064;-95
2023/10/10 01:46:43;;;;;;;0.53;0.43;;;;;;;13.72;59.93;100074.78;5335006;26;20025;-96
2023/10/10 01:49:13;;;;;;;0.80;0.32;;;;;;;13.70;59.93;100076.59;5332397;26;20173;-96
2023/10/10 01:51:42;;;;;;;0.00;0.00;;;;;;;13.70;59.93;100068.75;5315112;26;20068;-96
2023/10/10 01:54:29;;;;;;;0.28;0.28;;;;;;;13.66;59.93;100070.66;5331394;26;20098;-95
2023/10/10 01:56:55;;;;;;;0.20;0.20;;;;;;;13.69;59.93;100060.06;5317451;26;20064;-94
2023/10/10 01:59:24;;;;;;;0.20;0.17;;;;;;;13.69;59.93;100060.06;5329747;26;20048;-94
2023/10/10 02:01:51;;;;;;;0.60;0.52;;;;;;;13.60;59.93;100072.66;5312405;26;20124;-94
2023/10/10 02:04:21;;;;;;;0.37;0.25;;;;;;;13.52;59.93;100067.75;5312065;26;20055;-96
2023/10/10 02:06:55;;;;;;;0.10;0.10;;;;;;;13.52;59.92;100067.75;5314113;26;20056;-95
2023/10/10 02:09:33;;;;;;;0.00;0.00;;;;;;;13.65;59.92;100065.47;5332916;26;20044;-95
2023/10/10 02:12:08;;;;;;;0.20;0.20;;;;;;;13.62;59.93;100063.84;5316075;26;20167;-95
2023/10/10 02:14:34;;;;;;;3.45;0.77;;;;;;;13.48;59.91;100072.22;5314450;26;20072;-96
2023/10/10 02:17:08;;;;;;;0.00;0.00;;;;;;;13.68;59.93;100071.44;5312348;26;20145;-96
2023/10/10 02:19:39;;;;;;;0.00;0.00;;;;;;;13.64;59.92;100069.84;5316857;26;20045;-96
2023/10/10 02:28:00;;;;;;;0.73;0.73;;;;;;;13.41;59.91;100080.34;5335794;26;20777;-94
2023/10/10 02:30:34;;;;;;;0.00;0.00;;;;;;;13.68;59.93;100087.13;5317479;26;20025;-95
2023/10/10 02:33:31;;;;;;;0.57;0.57;;;;;;;13.52;59.92;100086.06;5335022;26;20080;-96
2023/10/10 02:35:56;;;;;;;0.08;0.08;;;;;;;13.42;59.92;100072.44;5333033;26;20728;-94
2023/10/10 02:38:31;;;;;;;0.30;0.30;;;;;;;13.47;59.92;100080.13;5333998;26;20056;-96
2023/10/10 02:41:50;;;;;;;0.03;0.03;;;;;;;13.43;59.92;100075.91;5355086;26;20028;-96
2023/10/10 02:47:04;;;;;;;0.90;0.90;;;;;;;13.51;59.93;100081.72;5360162;26;20079;-96
2023/10/10 02:49:30;;;;;;;1.10;0.10;;;;;;;13.51;59.92;100084.34;5315836;26;20493;-96
2023/10/10 02:51:57;;;;;;;0.35;0.35;;;;;;;13.51;59.92;100087.81;5333164;26;20079;-96
2023/10/10 02:54:35;;;;;;;0.47;0.47;;;;;;;13.52;59.93;100086.06;5330227;26;20361;-95
2023/10/10 02:59:52;;;;;;;0.17;0.15;;;;;;;13.55;59.92;100078.06;5336420;26;20074;-95
2023/10/10 03:02:49;;;;;;;0.00;0.00;;;;;;;13.48;59.92;100094.91;5330619;26;20602;-95
2023/10/10 03:05:16;;;;;;;0.70;0.70;;;;;;;13.54;59.93;100094.69;5331209;26;20071;-96
2023/10/10 03:07:51;;;;;;;0.50;0.43;;;;;;;13.77;59.94;100084.16;5312296;26;20078;-96
2023/10/10 03:10:23;;;;;;;0.00;0.00;;;;;;;13.57;59.92;100097.19;5313754;26;20790;-94
2023/10/10 03:12:53;;;;;;;1.85;0.65;;;;;;;13.57;59.92;100089.34;5330892;26;20040;-95
2023/10/10 03:25:52;;;;;;;0.20;0.20;;;;;;;13.48;59.91;100089.66;5305985;26;20117;-94
2023/10/10 03:28:20;;;;;;;0.75;0.75;;;;;;;13.49;59.93;100101.84;5332401;26;20068;-95
2023/10/10 05:25:31;;;;;;;0.32;0.32;;;;;;;12.97;59.89;100171.69;5338873;26;20739;-96
2023/10/10 05:27:58;;;;;;;8.07;1.35;;;;;;;13.08;59.90;100176.53;5332467;26;20444;-94
2023/10/10 05:30:24;;;;;;;0.30;0.30;;;;;;;13.13;59.90;100177.22;5312532;26;20052;-95
2023/10/10 05:33:00;;;;;;;0.20;0.20;;;;;;;12.99;59.89;100182.06;5312252;26;20048;-94
2023/10/10 05:35:40;;;;;;;0.00;0.00;;;;;;;13.09;59.90;100178.25;5313531;26;20068;-95
2023/10/10 05:38:09;;;;;;;0.10;0.10;;;;;;;13.02;59.89;100189.84;5313102;26;20038;-96
2023/10/10 05:40:34;;;;;;;0.17;0.17;;;;;;;13.05;59.90;100197.56;5312670;26;20051;-94
2023/10/10 05:43:00;;;;;;;0.28;0.28;;;;;;;12.97;59.88;100202.19;5311561;26;20074;-95
2023/10/10 05:45:26;;;;;;;0.40;0.37;;;;;;;13.02;59.89;100197.69;5311576;26;20127;-95
2023/10/10 05:47:51;;;;;;;0.10;0.10;;;;;;;13.07;59.90;100208.81;5311375;26;20128;-96
2023/10/10 05:50:18;;;;;;;0.08;0.08;;;;;;;13.02;59.89;100205.50;5330009;26;20059;-95
2023/10/10 05:52:44;;;;;;;0.03;0.03;;;;;;;13.09;59.90;100213.06;5312027;26;20047;-96
2023/10/10 05:55:10;;;;;;;0.15;0.15;;;;;;;13.09;59.89;100207.00;5311814;26;20067;-96
2023/10/10 05:57:39;;;;;;;0.03;0.03;;;;;;;13.17;59.90;100211.06;5311315;26;20090;-95
2023/10/10 06:00:13;;;;;;;3.47;0.60;;;;;;;13.24;59.91;100208.22;5329691;26;20126;-95
2023/10/10 06:02:41;;;;;;;0.00;0.00;;;;;;;13.25;59.90;100210.81;5332446;26;20048;-94
2023/10/10 06:05:08;;;;;;;1.65;0.20;;;;;;;13.23;59.91;100216.97;5329769;26;20064;-95
2023/10/10 06:07:37;;;;;;;0.15;0.15;;;;;;;13.13;59.90;100222.50;5312068;26;20083;-96
2023/10/10 06:10:06;;;;;;;0.17;0.17;;;;;;;13.27;59.92;100219.47;5330378;26;20101;-96
2023/10/10 06:12:33;;;;;;;0.00;0.00;;;;;;;13.23;59.90;100211.75;5330107;26;20064;-94
2023/10/10 06:15:05;;;;;;;0.22;0.22;;;;;;;13.37;59.91;100227.81;5311692;26;20029;-95
2023/10/10 06:17:33;;;;;;;0.60;0.60;;;;;;;13.26;59.90;100233.44;5312968;26;20120;-94
2023/10/10 06:20:01;;;;;;;0.37;0.37;;;;;;;13.37;59.92;100226.06;5311924;26;20075;-94
2023/10/10 06:22:29;;;;;;;0.00;0.00;;;;;;;13.42;59.92;100231.97;5311311;26;20051;-96
2023/10/10 06:24:58;;;;;;;20.62;0.75;;;;;;;13.54;59.92;100238.53;5328257;26;20090;-95
2023/10/10 06:27:28;;;;;;;0.62;0.62;;;;;;;13.45;59.92;100244.06;5309513;26;20409;-95
2023/10/10 06:29:58;;;;;;;0.37;0.32;;;;;;;13.47;59.91;100239.63;5310097;26;20083;-94
2023/10/10 06:32:25;;;;;;;;;;;;;;;13.59;59.93;100244.44;5310191;26;20062;-94
2023/10/10 06:35:04;;;;;;;2.08;1.08;;;;;;;13.64;59.92;100239.03;5346576;26;19971;-95
2023/10/10 06:37:29;;;;;;;0.10;0.10;;;;;;;13.75;59.93;100236.91;5348686;26;20056;-94
2023/10/10 06:39:55;;;;;;;0.90;0.88;;;;;;;13.63;59.92;100242.56;5327859;26;20056;-95
2023/10/10 06:42:27;;;;;;;0.68;0.65;;;;;;;13.74;59.93;100237.81;5327911;26;20056;-96
2023/10/10 06:44:55;;;;;;;0.75;0.55;;;;;;;13.77;59.93;100240.31;5329081;26;20518;-95
2023/10/10 06:47:21;;;;;;;0.10;0.10;;;;;;;13.87;59.93;100243.41;5311697;26;20127;-93
2023/10/10 06:49:54;;;;;;;1.17;1.00;;;;;;;14.00;59.94;100247.28;5309707;26;20400;-95
2023/10/10 06:52:19;;;;;;;0.05;0.05;;;;;;;13.94;59.94;100253.59;5311897;26;20764;-95
2023/10/10 06:54:53;;;;;;;0.35;0.35;;;;;;;14.08;59.95;100271.41;5309282;26;20083;-95
2023/10/10 06:57:35;;;;;;;0.60;0.60;;;;;;;14.00;59.94;100269.09;5311269;26;20127;-94
2023/10/10 07:02:47;;;;;;;5.15;1.23;;;;;;;14.13;59.96;100266.84;5331846;26;20044;-94
2023/10/10 07:05:15;;;;;;;0.88;0.85;;;;;;;14.05;59.95;100267.13;5310985;26;20076;-95
2023/10/10 07:07:41;;;;;;;1.55;0.90;;;;;;;14.10;59.96;100269.56;5310400;26;20068;-95
2023/10/10 07:10:09;;;;;;;0.05;0.05;;;;;;;14.04;59.96;100267.19;5309605;26;20083;-94
2023/10/10 07:12:35;;;;;;;2.35;1.55;;;;;;;14.21;59.96;100266.56;5310252;26;20056;-94
2023/10/10 07:15:06;;;;;;;0.17;0.17;;;;;;;14.15;59.95;100267.63;5328858;26;20747;-95
2023/10/10 07:17:32;;;;;;;0.73;0.73;;;;;;;14.09;59.96;100273.97;5329569;26;20161;-96
2023/10/10 07:22:33;;;;;;;3.62;1.73;;;;;;;14.09;59.95;100286.19;5329619;26;20416;-93
2023/10/10 07:28:05;;;;;;;0.00;0.00;;;;;;;14.29;59.97;100288.91;5264338;27;20136;-95
2023/10/10 07:30:36;;;;;;;1.48;1.23;;;;;;;14.31;59.96;100288.84;5222929;27;20347;-95
2023/10/10 07:33:04;;;;;;;0.65;0.65;;;;;;;14.33;59.96;100282.62;5269079;26;20064;-94
2023/10/10 07:35:35;;;;;;;1.37;1.08;;;;;;;14.41;59.98;100283.19;5329052;26;20064;-93
2023/10/10 07:38:01;;;;;;;2.20;2.05;;;;;;;14.50;59.98;100283.78;5312214;26;20063;-94
2023/10/10 07:40:37;;;;;;;1.27;1.17;;;;;;;14.45;59.97;100286.59;5310580;26;20074;-94
2023/10/10 07:43:03;;;;;;;0.37;0.37;;;;;;;14.44;59.97;100287.50;5313756;26;20746;-95
2023/10/10 07:45:43;;;;;;;0.80;0.80;;;;;;;14.61;59.98;100284.19;5310577;26;20130;-95
2023/10/10 07:51:05;;;;;;;3.50;1.25;;;;;;;14.73;59.99;100281.94;5328936;26;20408;-95
2023/10/10 07:53:28;;;;;;;0.40;0.40;;;;;;;14.85;59.99;100282.34;5336243;26;20060;-94
2023/10/10 07:56:00;;;;;;;3.53;0.85;;;;;;;14.98;60.00;100266.06;5310246;26;20060;-94
2023/10/10 07:58:49;;;;;;;0.80;0.80;;;;;;;15.07;60.00;100277.91;5329227;26;20093;-94
2023/10/10 08:01:18;;;;;;;2.00;0.98;;;;;;;15.27;60.02;100282.31;5332997;26;20056;-93
2023/10/10 08:03:44;;;;;;;1.42;1.33;;;;;;;15.32;60.03;100282.97;5329743;26;20055;-96
2023/10/10 08:06:11;;;;;;;2.62;2.37;;;;;;;15.47;60.02;100278.84;5310368;26;20075;-94
2023/10/10 08:08:36;;;;;;;0.62;0.60;;;;;;;15.47;60.02;100278.84;5331082;26;20060;-94
2023/10/10 08:11:12;;;;;;;1.27;1.17;;;;;;;15.56;60.04;100279.28;5312390;26;20089;-96
2023/10/10 08:13:46;;;;;;;1.83;1.73;;;;;;;15.54;60.02;100278.50;5313056;26;20064;-95
2023/10/10 08:16:19;;;;;;;0.73;0.52;;;;;;;15.54;60.02;100257.50;5312013;26;20084;-94
2023/10/10 08:21:11;;;;;;;2.70;2.40;;;;;;;15.79;60.05;100280.91;5347109;26;20386;-95
2023/10/10 08:23:42;;;;;;;0.20;0.20;;;;;;;15.94;60.04;100271.50;5310158;26;20067;-94
2023/10/10 08:26:38;;;;;;;2.00;1.83;;;;;;;16.11;60.06;100276.84;5311494;26;20446;-94
2023/10/10 08:29:04;;;;;;;1.15;1.05;;;;;;;16.07;60.05;100285.75;5318215;26;20777;-95
2023/10/10 08:31:30;;;;;;;0.93;0.90;;;;;;;16.28;60.07;100297.91;5328679;26;20091;-94
2023/10/10 08:33:58;;;;;;;0.73;0.73;;;;;;;16.34;60.08;100293.31;5310165;26;20096;-95
2023/10/10 08:36:23;;;;;;;2.12;1.92;;;;;;;16.56;60.09;100297.47;5328760;26;20059;-94
2023/10/10 08:38:56;;;;;;;0.77;0.65;;;;;;;16.52;60.08;100302.94;5333584;26;20114;-95
2023/10/10 08:41:23;;;;;;;0.73;0.73;;;;;;;16.68;60.08;100295.19;5310140;26;20056;-94
2023/10/10 08:43:53;;;;;;;3.05;1.67;;;;;;;16.58;60.09;100302.66;5310133;26;20048;-94
2023/10/10 08:46:21;;;;;;;2.67;2.35;;;;;;;16.74;60.09;100300.16;5328600;26;20083;-93
2023/10/10 08:48:46;;;;;;;3.33;2.00;;;;;;;16.52;60.08;100305.56;5310755;26;20064;-94
2023/10/10 08:51:12;;;;;;;2.62;2.42;;;;;;;16.56;60.09;100299.22;5309793;26;20059;-95
2023/10/10 08:53:38;;;;;;;1.08;0.82;;;;;;;16.54;60.08;100312.44;5310235;26;20084;-94
2023/10/10 08:56:04;;;;;;;1.98;1.23;;;;;;;16.45;60.08;100307.63;5309990;26;20060;-95
2023/10/10 08:58:32;;;;;;;0.62;0.62;;;;;;;16.46;60.08;100308.47;5328294;26;20071;-94
2023/10/10 09:01:00;;;;;;;0.98;0.98;;;;;;;16.52;60.08;100311.66;5310742;26;20067;-94
2023/10/10 09:03:26;;;;;;;0.98;0.98;;;;;;;16.72;60.10;100308.13;5328442;26;20458;-94
2023/10/10 09:05:52;;;;;;;1.60;0.98;;;;;;;16.65;60.10;100314.56;5310687;26;20040;-95
2023/10/10 09:08:18;;;;;;;5.37;2.25;;;;;;;16.68;60.09;100314.47;5328335;26;20066;-94
2023/10/10 09:10:46;;;;;;;3.92;2.03;;;;;;;16.80;60.10;100318.28;5328306;26;20083;-95
2023/10/10 09:13:11;;;;;;;1.30;0.62;;;;;;;16.78;60.10;100326.22;5310807;26;20077;-95
2023/10/10 09:15:38;;;;;;;8.63;3.10;;;;;;;16.53;60.08;100330.91;5309848;26;20088;-95
2023/10/10 09:18:16;;;;;;;0.80;0.75;;;;;;;16.44;60.08;100331.34;5328501;26;20083;-94
2023/10/10 09:20:44;;;;;;;5.57;1.60;;;;;;;16.56;60.09;100331.66;5329472;26;20056;-96
2023/10/10 09:23:21;;;;;;;2.50;1.27;;;;;;;16.74;60.09;100331.69;5310821;26;20065;-95
2023/10/10 09:25:57;;;;;;;1.70;1.60;;;;;;;16.61;60.08;100339.31;5310204;26;20079;-94
2023/10/10 09:28:32;;;;;;;1.15;1.10;;;;;;;16.56;60.09;100339.53;5313191;26;20082;-95
2023/10/10 09:31:03;;;;;;;2.35;1.77;;;;;;;16.57;60.09;100332.50;5312342;26;20425;-96
2023/10/10 09:33:30;;;;;;;2.87;1.23;;;;;;;16.62;60.10;100330.50;5312140;26;20051;-94
2023/10/10 09:36:26;;;;;;;0.75;0.70;;;;;;;16.67;60.09;100333.78;5309957;26;20064;-95
2023/10/10 09:38:55;;;;;;;1.33;1.23;;;;;;;16.65;60.09;100332.13;5317450;26;20159;-94
2023/10/10 09:55:07;;;;;;;1.15;1.05;;;;;;;17.17;60.12;100336.56;5335056;26;20105;-94
2023/10/10 09:57:40;;;;;;;1.23;1.12;;;;;;;17.13;60.11;100335.03;5328747;26;20032;-94
2023/10/10 10:00:15;;;;;;;2.03;1.92;;;;;;;17.21;60.12;100342.53;5311200;26;20067;-94
2023/10/10 10:02:48;;;;;;;16.10;2.10;;;;;;;17.19;60.12;100329.44;5328716;26;20113;-93
2023/10/10 10:05:21;;;;;;;1.00;1.00;;;;;;;17.37;60.13;100330.31;5311870;26;20751;-94
2023/10/10 10:07:57;;;;;;;0.32;0.32;;;;;;;17.46;60.14;100321.94;5329472;26;20060;-95
2023/10/10 10:10:34;;;;;;;3.20;2.37;;;;;;;17.59;60.14;100324.81;5327903;26;20063;-93
2023/10/10 10:13:19;;;;;;;4.30;1.85;;;;;;;17.76;60.15;100324.81;5311424;26;20835;-94
2023/10/10 10:15:53;;;;;;;0.20;0.20;;;;;;;17.91;60.16;100325.78;5346327;26;20052;-93
2023/10/10 10:18:27;;;;;;;0.52;0.52;;;;;;;17.89;60.16;100332.91;5328344;26;20081;-94
2023/10/10 10:23:47;;;;;;;7.80;1.48;;;;;;;18.25;60.18;100316.06;5332781;26;20760;-95
2023/10/10 10:26:22;;;;;;;1.55;1.35;;;;;;;18.20;60.18;100326.00;5310631;26;20056;-94
2023/10/10 10:28:56;;;;;;;8.05;2.53;;;;;;;18.29;60.18;100322.88;5312807;26;20075;-95
2023/10/10 10:31:28;;;;;;;0.60;0.60;;;;;;;18.54;60.19;100319.72;5331005;26;20064;-94
2023/10/10 10:34:23;;;;;;;1.30;1.20;;;;;;;18.55;60.20;100322.28;5310352;26;20098;-95
2023/10/10 10:36:54;;;;;;;1.33;1.23;;;;;;;18.80;60.21;100319.13;5329858;26;20048;-95
2023/10/10 10:39:22;;;;;;;2.10;1.75;;;;;;;18.83;60.21;100329.50;5310093;26;20067;-93
2023/10/10 10:41:53;;;;;;;2.65;2.35;;;;;;;18.46;60.19;100328.06;5312383;26;20059;-93
2023/10/10 10:44:28;;;;;;;0.80;0.47;;;;;;;18.27;60.18;100327.38;5311550;26;20055;-94
2023/10/10 10:46:56;;;;;;;1.45;1.35;;;;;;;18.46;60.19;100327.22;5327438;26;20420;-94
2023/10/10 10:49:22;;;;;;;2.50;0.52;;;;;;;18.09;60.17;100327.44;5328591;26;20392;-94
2023/10/10 10:51:50;;;;;;;2.85;1.10;;;;;;;18.17;60.18;100336.69;5310489;26;20121;-95
2023/10/10 10:54:38;;;;;;;5.28;2.25;;;;;;;17.89;60.16;100330.28;5311069;26;20859;-96
2023/10/10 10:57:03;;;;;;;1.75;1.65;;;;;;;18.05;60.17;100327.69;5331108;26;20029;-95
2023/10/10 10:59:35;;;;;;;7.10;0.60;;;;;;;17.99;60.16;100338.56;5310385;26;20098;-96
2023/10/10 11:02:05;;;;;;;0.62;0.60;;;;;;;18.00;60.17;100332.34;5312127;26;20059;-94
2023/10/10 11:07:02;;;;;;;0.65;0.65;;;;;;;17.39;60.14;100333.72;5329814;26;20052;-95
2023/10/10 11:09:32;;;;;;;1.40;1.30;;;;;;;17.52;60.14;100330.47;5311246;26;20111;-95
2023/10/10 11:12:02;;;;;;;2.60;1.35;;;;;;;17.44;60.13;100329.06;5329875;26;20729;-95
2023/10/10 11:14:29;;;;;;;1.65;1.55;;;;;;;17.44;60.14;100339.59;5329022;26;20070;-94
2023/10/10 11:16:57;;;;;;;0.70;0.70;;;;;;;17.40;60.14;100335.41;5310638;26;20053;-95
2023/10/10 11:19:38;;;;;;;0.73;0.73;;;;;;;17.60;60.14;100331.78;5311575;26;20060;-94
2023/10/10 11:22:16;;;;;;;0.20;0.20;;;;;;;17.52;60.14;100330.47;5330769;26;20056;-92
2023/10/10 11:24:46;;;;;;;1.90;1.20;;;;;;;17.56;60.15;100334.66;5330505;26;20070;-95
2023/10/10 11:29:45;;;;;;;0.32;0.30;;;;;;;17.50;60.14;100328.75;5328331;26;20094;-94
2023/10/10 11:32:29;;;;;;;0.55;0.55;;;;;;;17.31;60.12;100325.37;5312347;26;20032;-93
2023/10/10 11:38:28;;;;;;;4.05;1.85;;;;;;;17.47;60.14;100307.84;5318936;26;20016;-92
2023/10/10 11:40:52;;;;;;;1.17;1.12;;;;;;;17.74;60.15;100299.47;5335145;26;20059;-92
2023/10/10 11:43:19;;;;;;;0.75;0.75;;;;;;;17.80;60.16;100307.06;5312135;26;20072;-92
2023/10/10 11:45:51;;;;;;;2.75;0.77;;;;;;;18.07;60.17;100305.59;5310635;26;20052;-93
2023/10/10 11:48:16;;;;;;;3.30;0.85;;;;;;;18.05;60.17;100301.34;5311559;26;20058;-92
2023/10/10 11:50:49;;;;;;;3.33;1.48;;;;;;;18.14;60.18;100294.72;5309865;26;20131;-92
2023/10/10 11:53:27;;;;;;;0.82;0.80;;;;;;;18.31;60.17;100292.84;5328404;26;20060;-93
2023/10/10 11:56:01;;;;;;;1.12;0.70;;;;;;;18.34;60.18;100292.69;5329477;26;20839;-94
2023/10/10 11:58:35;;;;;;;2.17;1.60;;;;;;;18.30;60.18;100285.03;5329195;26;20097;-93
2023/10/10 12:01:05;;;;;;;0.68;0.68;;;;;;;18.50;60.20;100284.78;5312426;26;20416;-91
2023/10/10 12:06:13;;;;;;;0.77;0.77;;;;;;;18.44;60.19;100276.34;5331496;26;20052;-93
2023/10/10 12:08:40;;;;;;;2.60;1.62;;;;;;;18.72;60.21;100273.91;5329604;26;20707;-93
2023/10/10 12:11:12;;;;;;;1.70;1.23;;;;;;;18.99;60.21;100272.31;5310046;26;20035;-94
2023/10/10 12:13:37;;;;;;;1.90;1.80;;;;;;;18.97;60.21;100266.28;5311736;26;20130;-94
2023/10/10 12:16:07;;;;;;;5.35;2.62;;;;;;;19.29;60.23;100271.44;5328316;26;20056;-94
2023/10/10 12:18:33;;;;;;;1.37;1.27;;;;;;;19.30;60.23;100255.50;5328720;26;20060;-94
2023/10/10 12:21:01;;;;;;;5.35;1.25;;;;;;;19.40;60.25;100257.56;5309646;26;20083;-95
2023/10/10 12:23:27;;;;;;;0.70;0.70;;;;;;;19.22;60.23;100260.41;5310340;26;20736;-93
2023/10/10 12:25:54;;;;;;;2.17;1.67;;;;;;;19.30;60.23;100263.41;5309622;26;20108;-94
2023/10/10 12:28:19;;;;;;;4.10;2.42;;;;;;;19.28;60.23;100265.31;5328041;26;20067;-94
2023/10/10 12:30:45;;;;;;;2.28;1.33;;;;;;;19.20;60.23;100264.06;5309983;26;20083;-94
2023/10/10 12:33:16;;;;;;;3.95;1.15;;;;;;;19.44;60.24;100269.66;5327923;26;20367;-93
2023/10/10 12:35:47;;;;;;;2.70;1.42;;;;;;;19.39;60.25;100275.19;5311750;26;20117;-93
2023/10/10 12:38:20;;;;;;;0.52;0.52;;;;;;;19.46;60.24;100270.41;5328313;26;20068;-93
2023/10/10 12:40:53;;;;;;;3.30;2.45;;;;;;;19.46;60.24;100270.41;5329605;26;20075;-92
2023/10/10 12:43:24;;;;;;;3.15;2.15;;;;;;;19.88;60.27;100267.84;5309766;26;20185;-94
2023/10/10 12:45:51;;;;;;;1.87;1.10;;;;;;;19.95;60.27;100262.16;5310042;26;20074;-94
2023/10/10 12:48:22;;;;;;;1.08;1.05;;;;;;;20.24;60.29;100256.72;5309945;26;20111;-93
2023/10/10 12:50:51;;;;;;;0.75;0.75;;;;;;;20.36;60.29;100252.47;5311479;26;20060;-94
2023/10/10 12:53:19;;;;;;;3.35;1.85;;;;;;;20.37;60.29;100240.94;5310318;26;20134;-93
2023/10/10 12:55:49;;;;;;;2.05;1.90;;;;;;;20.38;60.28;100249.72;5310353;26;20093;-93
2023/10/10 12:58:24;;;;;;;3.72;2.05;;;;;;;20.35;60.29;100253.41;5306468;26;20056;-93
2023/10/10 13:00:51;;;;;;;1.67;1.58;;;;;;;20.42;60.29;100253.87;5310795;26;20071;-94
2023/10/10 13:03:22;;;;;;;1.40;1.30;;;;;;;20.58;60.30;100251.06;5328332;26;20070;-94
2023/10/10 13:05:50;;;;;;;3.00;1.98;;;;;;;20.50;60.29;100249.78;5310155;26;20048;-93
2023/10/10 13:08:17;;;;;;;1.80;1.65;;;;;;;20.33;60.29;100249.12;5310580;26;20066;-93
2023/10/10 13:10:43;;;;;;;1.10;0.80;;;;;;;20.21;60.28;100245.50;5309718;26;20681;-93
2023/10/10 13:13:09;;;;;;;0.98;0.73;;;;;;;20.28;60.29;100246.78;5309996;26;20063;-94
2023/10/10 13:15:49;;;;;;;2.15;1.10;;;;;;;20.18;60.29;100240.41;5327809;26;20341;-94
2023/10/10 13:18:21;;;;;;;2.15;0.90;;;;;;;20.22;60.29;100233.97;5313637;26;20074;-93
2023/10/10 13:20:50;;;;;;;2.12;1.95;;;;;;;19.92;60.26;100240.28;5311634;26;20075;-94
2023/10/10 13:23:19;;;;;;;3.00;2.37;;;;;;;19.51;60.25;100241.94;5310436;26;20056;-93
2023/10/10 13:25:48;;;;;;;4.95;3.10;;;;;;;19.69;60.25;100235.56;5309310;26;20123;-94
2023/10/10 13:28:17;;;;;;;2.08;1.87;;;;;;;19.69;60.26;100235.56;5310586;26;20449;-94
2023/10/10 13:30:42;;;;;;;5.80;1.90;;;;;;;19.73;60.26;100233.59;5328324;26;20072;-93
2023/10/10 13:33:08;;;;;;;1.90;1.40;;;;;;;19.79;60.27;100231.41;5309820;26;20075;-94
2023/10/10 13:35:37;;;;;;;2.15;1.70;;;;;;;19.95;60.27;100239.22;5327623;26;20103;-93
2023/10/10 13:38:06;;;;;;;2.33;2.12;;;;;;;19.80;60.27;100232.25;5310510;26;20115;-92
2023/10/10 13:40:38;;;;;;;0.35;0.35;;;;;;;19.80;60.26;100235.75;5310209;26;20060;-91
2023/10/10 13:43:08;;;;;;;1.37;1.27;;;;;;;19.85;60.27;100228.38;5311193;26;20039;-92
2023/10/10 13:45:41;;;;;;;3.05;1.92;;;;;;;19.71;60.26;100225.75;5310998;26;20164;-92
2023/10/10 13:48:13;;;;;;;9.63;1.42;;;;;;;19.98;60.27;100227.63;5311096;26;20404;-92
2023/10/10 13:50:42;;;;;;;1.58;1.23;;;;;;;19.93;60.27;100231.41;5310622;26;20064;-92
2023/10/10 13:53:16;;;;;;;2.55;1.40;;;;;;;20.09;60.28;100225.12;5310403;26;20064;-93
2023/10/10 13:55:43;;;;;;;2.70;1.87;;;;;;;19.86;60.27;100223.94;5309185;26;20052;-93
2023/10/10 13:58:12;;;;;;;1.40;1.17;;;;;;;20.14;60.28;100223.91;5309196;26;20062;-92
2023/10/10 14:00:39;;;;;;;1.10;1.02;;;;;;;20.08;60.27;100229.56;5310404;26;20120;-93
2023/10/10 14:03:05;;;;;;;2.72;1.15;;;;;;;20.00;60.27;100225.72;5328322;26;20024;-93
2023/10/10 14:05:34;;;;;;;0.82;0.82;;;;;;;20.14;60.28;100228.34;5327716;26;20110;-92
2023/10/10 14:08:17;;;;;;;2.60;1.00;;;;;;;20.22;60.28;100223.41;5310265;26;20079;-93
2023/10/10 14:10:43;;;;;;;1.75;1.27;;;;;;;20.24;60.29;100226.78;5330409;26;20068;-93
2023/10/10 14:13:18;;;;;;;1.75;1.65;;;;;;;20.20;60.28;100222.66;5309519;26;20120;-92
2023/10/10 14:15:54;;;;;;;1.05;0.95;;;;;;;20.28;60.29;100219.50;5312493;26;20113;-92
2023/10/10 14:18:30;;;;;;;1.27;1.17;;;;;;;20.35;60.29;100226.13;5310216;26;20039;-93
2023/10/10 14:20:56;;;;;;;0.40;0.40;;;;;;;20.30;60.29;100225.53;5304909;26;137371;-92
2023/10/10 14:23:25;;;;;;;0.32;0.32;;;;;;;20.32;60.29;100221.84;5308737;26;20064;-93
2023/10/10 14:26:12;;;;;;;0.70;0.47;;;;;;;20.15;60.28;100230.03;5327453;26;20066;-92
2023/10/10 14:28:38;;;;;;;2.28;1.92;;;;;;;20.31;60.29;100219.31;5314815;26;20391;-92
2023/10/10 14:31:03;;;;;;;7.00;1.33;;;;;;;20.30;60.29;100215.81;5309027;26;20055;-92
2023/10/10 14:33:29;;;;;;;3.15;2.65;;;;;;;20.35;60.29;100216.37;5309109;26;20074;-93
2023/10/10 14:35:54;;;;;;;0.98;0.98;;;;;;;20.30;60.29;100209.69;5308897;26;20146;-92
2023/10/10 14:38:20;;;;;;;1.17;0.77;;;;;;;20.45;60.29;100209.56;5309288;26;20513;-91
2023/10/10 14:40:45;;;;;;;7.68;2.95;;;;;;;20.39;60.29;100214.38;5309302;26;20085;-91
2023/10/10 14:43:11;;;;;;;2.17;1.20;;;;;;;20.35;60.29;100213.75;5309619;26;20064;-94
2023/10/10 14:45:43;;;;;;;1.55;1.45;;;;;;;20.39;60.29;100209.94;5309509;26;20071;-92
2023/10/10 14:48:20;;;;;;;5.80;1.62;;;;;;;20.41;60.29;100209.87;5310094;26;20044;-93